createdAt,value
2018-12-22T00:02:26.379Z,5.30
2018-12-22T00:04:52.943Z,4.50
2018-12-22T00:07:19.520Z,4.47
2018-12-22T00:09:46.229Z,4.77
2018-12-22T00:12:13.116Z,5.83
2018-12-22T00:14:39.816Z,5.17
2018-12-22T00:17:06.404Z,4.43
2018-12-22T00:19:32.980Z,5.53
2018-12-22T00:21:59.623Z,5.20
2018-12-22T00:24:26.256Z,4.07
2018-12-22T00:26:52.897Z,4.70
2018-12-22T00:29:19.532Z,4.77
2018-12-22T00:31:46.248Z,4.60
2018-12-22T00:34:12.793Z,4.60
2018-12-22T00:36:39.449Z,5.03
2018-12-22T00:39:06.093Z,3.93
2018-12-22T00:41:32.664Z,4.20
2018-12-22T00:43:59.257Z,5.27
2018-12-22T00:46:27.434Z,5.20
2018-12-22T00:48:54.009Z,4.50
2018-12-22T00:51:20.605Z,4.70
2018-12-22T00:53:47.240Z,4.90
2018-12-22T00:56:14.081Z,4.97
2018-12-22T00:58:40.721Z,4.57
2018-12-22T01:01:07.328Z,3.97
2018-12-22T01:03:34.269Z,4.47
2018-12-22T01:06:00.840Z,4.73
2018-12-22T01:08:27.471Z,4.57
2018-12-22T01:10:54.235Z,4.83
2018-12-22T01:13:20.952Z,4.60
2018-12-22T01:15:47.523Z,4.43
2018-12-22T01:18:14.140Z,4.63
2018-12-22T01:20:40.863Z,4.80
2018-12-22T01:23:07.699Z,4.43
2018-12-22T01:25:34.344Z,4.50
2018-12-22T01:28:01.696Z,5.07
2018-12-22T01:30:28.332Z,4.87
2018-12-22T01:32:55.424Z,4.53
2018-12-22T01:35:22.037Z,4.67
2018-12-22T01:37:48.652Z,4.80
2018-12-22T01:40:15.287Z,4.80
2018-12-22T01:42:41.929Z,4.13
2018-12-22T01:45:08.564Z,4.57
2018-12-22T01:47:35.195Z,4.63
2018-12-22T01:50:01.779Z,4.13
2018-12-22T01:52:28.476Z,4.70
2018-12-22T01:54:55.320Z,4.50
2018-12-22T01:57:21.952Z,4.23
2018-12-22T01:59:48.588Z,4.47
2018-12-22T02:02:15.229Z,4.33
2018-12-22T02:04:41.869Z,4.33
2018-12-22T02:07:08.548Z,4.73
2018-12-22T02:09:35.461Z,4.87
2018-12-22T02:12:02.061Z,4.40
2018-12-22T02:14:28.715Z,4.30
2018-12-22T02:16:55.352Z,5.10
2018-12-22T02:19:22.807Z,4.93
2018-12-22T02:21:49.453Z,4.33
2018-12-22T02:24:16.307Z,4.40
2018-12-22T02:26:42.912Z,3.77
2018-12-22T02:29:09.560Z,4.17
2018-12-22T02:31:36.295Z,4.50
2018-12-22T02:34:03.528Z,4.67
2018-12-22T02:36:30.109Z,3.87
2018-12-22T02:38:56.832Z,4.13
2018-12-22T02:41:23.552Z,4.73
2018-12-22T02:43:50.144Z,3.43
2018-12-22T02:46:16.736Z,5.13
2018-12-22T02:48:44.539Z,3.87
2018-12-22T02:51:11.241Z,4.37
2018-12-22T02:53:37.888Z,4.10
2018-12-22T02:56:04.456Z,3.87
2018-12-22T02:58:31.152Z,3.70
2018-12-22T03:00:58.509Z,3.87
2018-12-22T03:03:25.144Z,3.80
2018-12-22T03:05:51.731Z,4.30
2018-12-22T03:08:19.028Z,4.07
2018-12-22T03:10:45.873Z,3.63
2018-12-22T03:13:12.661Z,3.77
2018-12-22T03:15:39.236Z,3.50
2018-12-22T03:18:05.884Z,4.30
2018-12-22T03:20:32.520Z,4.07
2018-12-22T03:22:59.165Z,3.73
2018-12-22T03:25:25.765Z,3.10
2018-12-22T03:27:52.344Z,3.67
2018-12-22T03:30:19.237Z,3.50
2018-12-22T03:32:46.017Z,3.50
2018-12-22T03:35:12.616Z,3.57
2018-12-22T03:37:39.289Z,3.83
2018-12-22T03:40:07.312Z,3.37
2018-12-22T03:42:34.005Z,2.83
2018-12-22T03:45:00.811Z,3.40
2018-12-22T03:47:27.476Z,3.47
2018-12-22T03:49:54.122Z,3.83
2018-12-22T03:52:20.797Z,3.73
2018-12-22T03:54:47.492Z,3.33
2018-12-22T03:57:14.125Z,3.23
2018-12-22T03:59:40.755Z,3.10
2018-12-22T04:02:07.423Z,3.53
2018-12-22T04:04:34.040Z,3.10
2018-12-22T04:07:00.680Z,2.80
2018-12-22T04:09:27.312Z,2.60
2018-12-22T04:11:53.949Z,2.37
2018-12-22T04:14:20.596Z,2.80
2018-12-22T04:16:47.325Z,2.40
2018-12-22T04:19:13.961Z,2.17
2018-12-22T04:21:40.968Z,1.70
2018-12-22T04:24:07.645Z,1.70
2018-12-22T04:26:34.375Z,1.90
2018-12-22T04:29:01.020Z,1.30
2018-12-22T04:31:27.593Z,1.20
2018-12-22T04:33:54.176Z,1.40
2018-12-22T04:36:20.748Z,1.40
2018-12-22T04:38:47.364Z,1.17
2018-12-22T04:41:13.995Z,1.27
2018-12-22T04:43:40.633Z,1.53
2018-12-22T04:46:07.273Z,1.30
2018-12-22T04:48:33.924Z,1.60
2018-12-22T04:51:00.532Z,1.63
2018-12-22T04:53:27.284Z,1.63
2018-12-22T04:55:53.900Z,1.37
2018-12-22T04:58:20.556Z,2.50
2018-12-22T05:00:47.148Z,1.87
2018-12-22T05:03:14.548Z,1.83
2018-12-22T05:05:41.124Z,2.20
2018-12-22T05:08:07.721Z,1.40
2018-12-22T05:10:34.316Z,1.30
2018-12-22T05:13:00.989Z,1.60
2018-12-22T05:15:27.580Z,1.70
2018-12-22T05:17:54.156Z,1.50
2018-12-22T05:20:20.749Z,1.90
2018-12-22T05:22:47.518Z,1.80
2018-12-22T05:25:14.084Z,1.50
2018-12-22T05:27:40.661Z,2.27
2018-12-22T05:30:07.668Z,1.90
2018-12-22T05:32:34.251Z,1.77
2018-12-22T05:35:00.846Z,1.80
2018-12-22T05:37:27.438Z,1.77
2018-12-22T05:39:54.004Z,1.53
2018-12-22T05:42:20.635Z,2.10
2018-12-22T05:44:47.276Z,1.77
2018-12-22T05:47:13.926Z,2.03
2018-12-22T05:49:40.560Z,1.70
2018-12-22T05:52:07.185Z,1.90
2018-12-22T05:54:33.830Z,2.13
2018-12-22T05:57:00.430Z,1.37
2018-12-22T05:59:27.096Z,1.60
2018-12-22T06:01:53.746Z,1.80
2018-12-22T06:04:20.364Z,2.07
2018-12-22T06:06:47.460Z,1.77
2018-12-22T06:09:14.032Z,2.03
2018-12-22T06:11:40.692Z,2.23
2018-12-22T06:14:07.328Z,2.80
2018-12-22T06:16:33.918Z,1.93
2018-12-22T06:19:00.563Z,2.10
2018-12-22T06:21:27.444Z,2.17
2018-12-22T06:23:54.076Z,2.33
2018-12-22T06:26:20.717Z,2.00
2018-12-22T06:28:47.481Z,2.13
2018-12-22T06:31:14.197Z,2.10
2018-12-22T06:33:40.792Z,2.23
2018-12-22T06:36:07.472Z,2.00
2018-12-22T06:38:34.108Z,1.70
2018-12-22T06:41:00.916Z,1.93
2018-12-22T06:43:27.589Z,2.13
2018-12-22T06:45:54.221Z,2.23
2018-12-22T06:48:20.861Z,1.73
2018-12-22T06:50:47.945Z,2.00
2018-12-22T06:53:14.568Z,2.10
2018-12-22T06:55:41.865Z,1.90
2018-12-22T06:58:08.539Z,1.60
2018-12-22T07:00:35.277Z,1.70
2018-12-22T07:03:01.913Z,1.70
2018-12-22T07:05:28.544Z,1.53
2018-12-22T07:07:55.111Z,1.47
2018-12-22T07:10:21.706Z,1.30
2018-12-22T07:12:48.353Z,0.90
2018-12-22T07:15:14.944Z,0.60
2018-12-22T07:17:41.540Z,0.60
2018-12-22T07:20:08.156Z,0.50
2018-12-22T07:22:34.772Z,0.60
2018-12-22T07:25:01.360Z,0.40
2018-12-22T07:27:27.997Z,0.57
2018-12-22T07:29:54.640Z,0.60
2018-12-22T07:32:21.208Z,0.80
2018-12-22T07:34:47.812Z,1.00
2018-12-22T07:37:14.388Z,1.27
2018-12-22T07:39:40.956Z,1.37
2018-12-22T07:42:07.541Z,1.50
2018-12-22T07:44:34.232Z,1.60
2018-12-22T07:47:00.859Z,1.70
2018-12-22T07:49:27.940Z,1.40
2018-12-22T07:51:54.521Z,1.40
2018-12-22T07:54:21.377Z,1.30
2018-12-22T07:56:48.025Z,1.77
2018-12-22T07:59:14.660Z,1.73
2018-12-22T08:01:41.297Z,1.80
2018-12-22T08:04:08.288Z,1.90
2018-12-22T08:06:34.984Z,2.10
2018-12-22T08:09:02.357Z,2.80
2018-12-22T08:11:29.077Z,2.30
2018-12-22T08:13:55.710Z,2.30
2018-12-22T08:16:22.449Z,1.60
2018-12-22T08:18:49.084Z,1.90
2018-12-22T08:21:15.724Z,2.33
2018-12-22T08:23:42.365Z,2.67
2018-12-22T08:26:08.996Z,2.60
2018-12-22T08:28:35.645Z,2.80
2018-12-22T08:31:02.373Z,2.23
2018-12-22T08:33:28.954Z,2.87
2018-12-22T08:35:55.644Z,2.13
2018-12-22T08:38:22.696Z,1.53
2018-12-22T08:40:49.880Z,1.87
2018-12-22T08:43:16.468Z,2.63
2018-12-22T08:45:43.045Z,2.20
2018-12-22T08:48:09.648Z,1.80
2018-12-22T08:50:36.288Z,1.97
2018-12-22T08:53:02.884Z,1.67
2018-12-22T08:55:29.560Z,1.97
2018-12-22T08:57:56.201Z,1.77
2018-12-22T09:00:23.013Z,1.80
2018-12-22T09:02:49.680Z,1.93
2018-12-22T09:05:16.247Z,1.70
2018-12-22T09:07:42.852Z,1.77
2018-12-22T09:10:09.456Z,2.17
2018-12-22T09:12:36.129Z,1.60
2018-12-22T09:15:03.444Z,1.90
2018-12-22T09:17:30.144Z,1.40
2018-12-22T09:19:56.748Z,1.73
2018-12-22T09:22:23.320Z,1.70
2018-12-22T09:24:49.902Z,1.40
2018-12-22T09:27:16.467Z,1.47
2018-12-22T09:29:43.052Z,1.60
2018-12-22T09:32:09.664Z,1.50
2018-12-22T09:34:36.240Z,1.73
2018-12-22T09:37:02.900Z,1.93
2018-12-22T09:39:29.614Z,1.80
2018-12-22T09:41:56.157Z,1.80
2018-12-22T09:44:22.813Z,1.80
2018-12-22T09:46:49.409Z,1.93
2018-12-22T09:49:16.940Z,2.23
2018-12-22T09:51:43.529Z,1.93
2018-12-22T09:54:10.188Z,2.57
2018-12-22T09:56:36.780Z,2.10
2018-12-22T09:59:03.487Z,3.03
2018-12-22T10:01:30.192Z,2.40
2018-12-22T10:03:57.167Z,2.80
2018-12-22T10:06:23.767Z,3.50
2018-12-22T10:08:50.416Z,4.20
2018-12-22T10:11:17.025Z,3.90
2018-12-22T10:13:43.604Z,3.70
2018-12-22T10:16:10.183Z,3.83
2018-12-22T10:18:36.756Z,4.37
2018-12-22T10:21:03.339Z,3.80
2018-12-22T10:23:29.940Z,3.60
2018-12-22T10:25:56.535Z,3.70
2018-12-22T10:28:23.104Z,4.87
2018-12-22T10:30:49.708Z,4.00
2018-12-22T10:33:16.304Z,3.73
2018-12-22T10:35:42.876Z,3.90
2018-12-22T10:38:09.456Z,3.87
2018-12-22T10:40:36.039Z,3.47
2018-12-22T10:43:02.640Z,3.53
2018-12-22T10:45:29.232Z,3.50
2018-12-22T10:47:55.828Z,3.77
2018-12-22T10:50:22.496Z,3.53
2018-12-22T10:52:49.069Z,2.50
2018-12-22T10:55:15.664Z,2.90
2018-12-22T10:57:42.237Z,2.70
2018-12-22T11:00:10.070Z,3.13
2018-12-22T11:02:36.671Z,3.03
2018-12-22T11:05:04.089Z,2.70
2018-12-22T11:07:30.728Z,2.73
2018-12-22T11:09:57.361Z,2.60
2018-12-22T11:12:23.996Z,2.70
2018-12-22T11:14:50.627Z,2.60
2018-12-22T11:17:17.200Z,2.87
2018-12-22T11:19:43.804Z,2.20
2018-12-22T11:22:10.440Z,2.80
2018-12-22T11:24:37.072Z,2.47
2018-12-22T11:27:03.711Z,2.50
2018-12-22T11:29:30.357Z,2.50
2018-12-22T11:31:56.992Z,2.77
2018-12-22T11:34:23.559Z,2.20
2018-12-22T11:36:50.147Z,3.03
2018-12-22T11:39:16.738Z,2.33
2018-12-22T11:41:43.304Z,2.13
2018-12-22T11:44:10.803Z,2.60
2018-12-22T11:46:37.613Z,2.40
2018-12-22T11:49:04.820Z,2.97
2018-12-22T11:51:31.416Z,2.77
2018-12-22T11:53:58.053Z,2.60
2018-12-22T11:56:24.683Z,2.20
2018-12-22T11:58:52.042Z,2.43
2018-12-22T12:01:18.680Z,2.47
2018-12-22T12:03:45.318Z,2.13
2018-12-22T12:06:11.883Z,2.47
2018-12-22T12:08:38.463Z,2.07
2018-12-22T12:11:05.132Z,2.00
2018-12-22T12:13:31.700Z,2.10
2018-12-22T12:15:59.419Z,2.43
2018-12-22T12:18:29.750Z,2.23
2018-12-22T12:20:56.420Z,2.53
2018-12-22T12:23:23.008Z,2.40
2018-12-22T12:25:49.660Z,2.40
2018-12-22T12:28:16.288Z,2.20
2018-12-22T12:30:43.141Z,1.60
2018-12-22T12:33:10.495Z,2.43
2018-12-22T12:35:37.123Z,1.90
2018-12-22T12:38:03.760Z,1.83
2018-12-22T12:40:30.400Z,2.53
2018-12-22T12:42:57.047Z,1.90
2018-12-22T12:45:23.676Z,3.20
2018-12-22T12:47:50.253Z,1.80
2018-12-22T12:50:18.684Z,3.03
2018-12-22T12:52:45.309Z,2.40
2018-12-22T12:55:11.936Z,1.93
2018-12-22T12:57:38.536Z,2.40
2018-12-22T13:00:20.480Z,2.77
2018-12-22T13:02:47.067Z,2.10
2018-12-22T13:05:13.663Z,1.97
2018-12-22T13:07:40.259Z,2.53
2018-12-22T13:10:13.672Z,2.43
2018-12-22T13:12:51.617Z,2.60
2018-12-22T13:15:18.311Z,2.47
2018-12-22T13:17:44.876Z,2.80
2018-12-22T13:20:11.444Z,2.50
2018-12-22T13:22:38.031Z,2.33
2018-12-22T13:25:05.236Z,2.53
2018-12-22T13:27:31.804Z,2.30
2018-12-22T13:29:58.396Z,2.93
2018-12-22T13:32:25.016Z,2.57
2018-12-22T13:34:51.612Z,2.17
2018-12-22T13:37:18.228Z,2.10
2018-12-22T13:39:44.840Z,2.20
2018-12-22T13:42:11.453Z,3.37
2018-12-22T13:44:38.081Z,3.30
2018-12-22T13:47:04.679Z,2.57
2018-12-22T13:49:31.395Z,2.40
2018-12-22T13:51:58.129Z,2.40
2018-12-22T13:54:24.719Z,2.17
2018-12-22T13:56:51.367Z,2.27
2018-12-22T13:59:17.958Z,2.23
2018-12-22T14:01:45.165Z,3.07
2018-12-22T14:04:11.748Z,2.30
2018-12-22T14:06:38.932Z,1.90
2018-12-22T14:09:06.884Z,2.40
2018-12-22T14:11:33.544Z,2.80
2018-12-22T14:14:00.124Z,2.90
2018-12-22T14:16:28.054Z,2.10
2018-12-22T14:18:54.674Z,2.20
2018-12-22T14:21:21.266Z,4.53
2018-12-22T14:23:50.628Z,4.93
2018-12-22T14:26:17.256Z,2.67
2018-12-22T14:28:43.941Z,2.30
2018-12-22T14:31:10.568Z,2.40
2018-12-22T14:33:37.168Z,2.60
2018-12-22T14:36:04.521Z,2.53
2018-12-22T14:38:31.120Z,2.90
2018-12-22T14:40:57.694Z,2.80
2018-12-22T14:43:24.289Z,2.53
2018-12-22T14:45:50.973Z,2.77
2018-12-22T14:48:17.609Z,3.17
2018-12-22T14:50:44.216Z,3.10
2018-12-22T14:53:10.783Z,3.03
2018-12-22T14:55:37.359Z,2.70
2018-12-22T14:58:04.488Z,2.90
2018-12-22T15:00:31.055Z,2.53
2018-12-22T15:02:57.652Z,2.27
2018-12-22T15:05:24.248Z,2.93
2018-12-22T15:07:50.826Z,3.13
2018-12-22T15:10:17.404Z,3.37
2018-12-22T15:12:43.980Z,3.00
2018-12-22T15:15:11.000Z,3.10
2018-12-22T15:17:39.000Z,2.87
2018-12-22T15:20:07.520Z,3.30
2018-12-22T15:22:34.094Z,2.60
2018-12-22T15:25:00.752Z,2.70
2018-12-22T15:27:27.328Z,2.70
2018-12-22T15:29:53.924Z,2.87
2018-12-22T15:32:20.541Z,3.10
2018-12-22T15:34:47.190Z,2.97
2018-12-22T15:37:13.780Z,3.30
2018-12-22T15:39:40.356Z,2.83
2018-12-22T15:42:06.962Z,3.03
2018-12-22T15:44:33.536Z,3.00
2018-12-22T15:47:00.110Z,3.00
2018-12-22T15:49:26.700Z,3.70
2018-12-22T15:51:53.287Z,2.80
2018-12-22T15:54:19.864Z,3.80
2018-12-22T15:56:46.456Z,3.47
2018-12-22T15:59:13.044Z,3.23
2018-12-22T16:01:40.400Z,3.37
2018-12-22T16:04:07.099Z,3.43
2018-12-22T16:06:33.780Z,2.83
2018-12-22T16:09:00.516Z,3.07
2018-12-22T16:11:27.088Z,3.83
2018-12-22T16:13:53.659Z,3.03
2018-12-22T16:16:20.864Z,3.87
2018-12-22T16:18:47.496Z,3.20
2018-12-22T16:21:14.593Z,4.40
2018-12-22T16:23:41.294Z,3.47
2018-12-22T16:26:07.934Z,3.37
2018-12-22T16:28:34.508Z,3.33
2018-12-22T16:31:01.118Z,3.07
2018-12-22T16:33:27.787Z,3.47
2018-12-22T16:35:54.383Z,3.47
2018-12-22T16:38:21.006Z,3.70
2018-12-22T16:40:47.601Z,4.50
2018-12-22T16:43:14.221Z,3.67
2018-12-22T16:45:41.022Z,3.80
2018-12-22T16:48:07.613Z,4.30
2018-12-22T16:50:35.308Z,3.93
2018-12-22T16:53:01.905Z,3.67
2018-12-22T16:55:28.516Z,3.50
2018-12-22T16:57:57.944Z,3.97
2018-12-22T17:00:29.225Z,3.50
2018-12-22T17:02:55.825Z,3.80
2018-12-22T17:05:22.420Z,3.80
2018-12-22T17:07:49.004Z,3.17
2018-12-22T17:10:15.596Z,4.03
2018-12-22T17:12:42.189Z,3.83
2018-12-22T17:15:10.772Z,3.63
2018-12-22T17:17:37.397Z,3.77
2018-12-22T17:20:05.996Z,3.53
2018-12-22T17:22:32.712Z,4.43
2018-12-22T17:24:59.323Z,3.30
2018-12-22T17:27:25.938Z,3.90
2018-12-22T17:29:52.532Z,4.10
2018-12-22T17:32:19.104Z,3.80
2018-12-22T17:34:45.701Z,4.70
2018-12-22T17:37:12.324Z,3.93
2018-12-22T17:39:38.919Z,3.60
2018-12-22T17:42:05.520Z,4.73
2018-12-22T17:44:32.107Z,4.27
2018-12-22T17:46:58.676Z,4.23
2018-12-22T17:49:25.273Z,4.37
2018-12-22T17:51:51.980Z,3.90
2018-12-22T17:54:18.576Z,4.23
2018-12-22T17:56:45.153Z,5.67
2018-12-22T17:59:11.777Z,4.10
2018-12-22T18:01:38.373Z,4.13
2018-12-22T18:04:04.960Z,4.83
2018-12-22T18:06:31.532Z,3.93
2018-12-22T18:08:58.131Z,4.27
2018-12-22T18:11:24.705Z,4.50
2018-12-22T18:13:51.284Z,3.83
2018-12-22T18:16:17.875Z,3.33
2018-12-22T18:18:44.453Z,4.60
2018-12-22T18:21:11.039Z,4.30
2018-12-22T18:23:37.612Z,4.20
2018-12-22T18:26:04.220Z,4.03
2018-12-22T18:28:30.793Z,4.27
2018-12-22T18:30:57.383Z,4.23
2018-12-22T18:33:23.965Z,3.93
2018-12-22T18:35:50.553Z,4.70
2018-12-22T18:38:17.130Z,4.60
2018-12-22T18:40:43.796Z,4.47
2018-12-22T18:43:10.384Z,4.27
2018-12-22T18:45:36.973Z,4.43
2018-12-22T18:48:03.573Z,4.03
2018-12-22T18:50:30.227Z,4.27
2018-12-22T18:52:56.851Z,4.50
2018-12-22T18:55:23.458Z,3.73
2018-12-22T18:57:50.158Z,4.30
2018-12-22T19:00:19.651Z,4.17
2018-12-22T19:02:46.344Z,4.37
2018-12-22T19:05:13.247Z,3.93
2018-12-22T19:07:39.840Z,4.73
2018-12-22T19:10:12.324Z,5.17
2018-12-22T19:12:38.892Z,4.43
2018-12-22T19:15:05.508Z,4.93
2018-12-22T19:17:32.100Z,4.60
2018-12-22T19:19:58.696Z,4.67
2018-12-22T19:22:25.284Z,4.60
2018-12-22T19:24:51.860Z,5.63
2018-12-22T19:27:18.448Z,6.17
2018-12-22T19:29:45.011Z,6.07
2018-12-22T19:32:11.596Z,5.20
2018-12-22T19:34:38.208Z,5.60
2018-12-22T19:37:04.779Z,4.90
2018-12-22T19:39:31.528Z,5.30
2018-12-22T19:41:58.211Z,5.23
2018-12-22T19:44:24.784Z,6.00
2018-12-22T19:46:51.364Z,6.57
2018-12-22T19:49:17.956Z,6.27
2018-12-22T19:51:44.533Z,5.73
2018-12-22T19:54:11.156Z,5.70
2018-12-22T19:56:37.729Z,5.87
2018-12-22T19:59:04.311Z,4.73
2018-12-22T20:01:30.880Z,5.93
2018-12-22T20:04:02.005Z,4.80
2018-12-22T20:06:26.034Z,4.97
2018-12-22T20:08:52.624Z,4.13
2018-12-22T20:11:19.239Z,5.77
2018-12-22T20:13:45.830Z,5.50
2018-12-22T20:16:12.400Z,4.80
2018-12-22T20:18:38.987Z,5.30
2018-12-22T20:21:05.574Z,5.47
2018-12-22T20:23:32.156Z,4.80
2018-12-22T20:25:58.752Z,5.47
2018-12-22T20:28:25.372Z,5.40
2018-12-22T20:30:51.948Z,4.97
2018-12-22T20:33:18.540Z,5.23
2018-12-22T20:35:45.114Z,4.20
2018-12-22T20:38:11.679Z,4.63
2018-12-22T20:40:38.272Z,4.60
2018-12-22T20:43:04.890Z,5.10
2018-12-22T20:45:31.480Z,4.93
2018-12-22T20:47:58.072Z,5.63
2018-12-22T20:50:24.648Z,4.17
2018-12-22T20:52:51.265Z,4.50
2018-12-22T20:55:17.840Z,4.90
2018-12-22T20:57:44.415Z,4.53
2018-12-22T21:00:10.993Z,4.30
2018-12-22T21:02:37.583Z,4.13
2018-12-22T21:05:04.204Z,5.00
2018-12-22T21:07:30.773Z,4.67
2018-12-22T21:09:57.371Z,4.67
2018-12-22T21:12:23.941Z,4.23
2018-12-22T21:14:50.612Z,4.53
2018-12-22T21:17:17.204Z,4.00
2018-12-22T21:19:43.796Z,5.00
2018-12-22T21:22:10.391Z,4.67
2018-12-22T21:24:37.495Z,4.30
2018-12-22T21:27:04.095Z,4.57
2018-12-22T21:29:30.716Z,4.03
2018-12-22T21:31:57.296Z,3.70
2018-12-22T21:34:28.298Z,3.77
2018-12-22T21:36:52.487Z,3.90
2018-12-22T21:39:19.061Z,4.67
2018-12-22T21:41:45.650Z,4.03
2018-12-22T21:44:12.241Z,3.23
2018-12-22T21:46:38.927Z,3.30
2018-12-22T21:49:05.517Z,3.37
2018-12-22T21:51:32.088Z,3.57
2018-12-22T21:53:58.700Z,3.80
2018-12-22T21:56:25.300Z,4.10
2018-12-22T21:58:51.868Z,3.77
2018-12-22T22:01:18.484Z,3.07
2018-12-22T22:03:45.060Z,3.30
2018-12-22T22:06:11.653Z,3.90
2018-12-22T22:08:38.267Z,3.40
2018-12-22T22:11:04.932Z,3.40
2018-12-22T22:13:31.488Z,3.70
2018-12-22T22:15:58.085Z,3.87
2018-12-22T22:18:24.748Z,4.23
2018-12-22T22:20:51.324Z,4.90
2018-12-22T22:23:19.193Z,4.67
2018-12-22T22:25:46.085Z,4.70
2018-12-22T22:28:12.650Z,4.73
2018-12-22T22:30:39.236Z,4.20
2018-12-22T22:33:05.818Z,3.50
2018-12-22T22:35:32.425Z,4.13
2018-12-22T22:37:58.992Z,3.73
2018-12-22T22:40:25.611Z,4.13
2018-12-22T22:42:52.196Z,4.00
2018-12-22T22:45:18.779Z,3.90
2018-12-22T22:47:45.372Z,2.73
2018-12-22T22:50:11.984Z,3.73
2018-12-22T22:52:38.552Z,3.90
2018-12-22T22:55:05.239Z,4.93
2018-12-22T22:57:31.933Z,3.43
2018-12-22T22:59:58.537Z,4.17
2018-12-22T23:02:25.085Z,3.93
2018-12-22T23:04:54.534Z,3.87
2018-12-22T23:07:20.337Z,3.97
2018-12-22T23:09:46.913Z,4.07
2018-12-22T23:12:13.521Z,4.30
2018-12-22T23:14:40.104Z,4.47
2018-12-22T23:17:06.764Z,4.60
2018-12-22T23:19:35.067Z,5.67
2018-12-22T23:22:01.880Z,4.60
2018-12-22T23:24:28.526Z,4.57
2018-12-22T23:26:56.073Z,4.60
2018-12-22T23:29:22.653Z,4.87
2018-12-22T23:31:49.332Z,7.90
2018-12-22T23:34:15.928Z,6.10
2018-12-22T23:36:42.516Z,4.30
2018-12-22T23:39:09.132Z,4.37
2018-12-22T23:41:35.793Z,4.70
2018-12-22T23:44:02.428Z,4.67
2018-12-22T23:46:29.032Z,4.10
2018-12-22T23:48:55.713Z,3.23
2018-12-22T23:51:22.448Z,3.50
2018-12-22T23:53:49.069Z,3.23
2018-12-22T23:56:15.683Z,3.43
2018-12-22T23:58:42.289Z,3.20
